Airfield :
LOGIN :

Register | Disclaimer

   EN    FR    IT 

 










Legend :    VFR   Marginal VFR   IFR   Intensive IFR   Very Intensive IFR
Visi :
Ceiling :
>= 8 km
>= 3000ft
5 to 8 km
1000 to 3000 ft
1500m to 5 km
500 to 1000 ft
800 to 1500m
200 to 500 ft
< 800m
< 200 ft
Symbols :   Thunderstorms  Fog  Heavy snow  Heavy precipitations  Wind > 20 kt
SIGMETs :     Misc.  Thunderstorms  Icing  Turbulence  Mountain Waves  Volcanic Ashes






- Airport Elevation : 18 ft
- IATA code : AJA


LFKJ - Ajaccio

CURRENT METAR :
  • 260100Z AUTO 32004KT 260V070 9999 ///CB 25/22 Q1010 BECMG FEW040 BKN160

EXPIRED METARs :
  • 260030Z AUTO VRB02KT 9999 ///TCU 25/22 Q1010 BECMG FEW040 BKN160
  • 260000Z AUTO 08004KT 040V110 CAVOK 25/21 Q1009 NOSIG
  • 252330Z AUTO 10004KT 080V140 9999 BKN008/// BKN150/// ///TCU 24/21 Q1010 BECMG FEW040 BKN160
  • 252300Z AUTO 06004KT 9999 FEW008 BKN150 24/21 Q1010 TEMPO FEW035TCU
  • 252230Z AUTO 04003KT 9999 FEW009 BKN160 25/21 Q1009 TEMPO FEW035TCU

TAF TAF LFKJ
Valid from the 25 at 21:00 until the 26 at 21:00 UTC


252000Z 2521/2621 16004KT 9999 FEW040 BKN160
TEMPO 2521/2524 FEW035TCU
TEMPO 2605/2610 RA FEW035TCU BKN080 BKN120
PROB40
TEMPO 2608/2610 22010KT
BECMG 2610/2612 22010KT
BECMG 2618/2620 04004KT
ATIS : +33 4 95 23 59 85



MET'MAP, your aeronautical weather chart ! - Copyright ORBIFLY December 2007 - Disclaimer

ORBIFLY MET'MAP TEAM :

Programming & Development : Alexandra Zaïnal
Concept & original design : Baudouin d'Aumeries
Assistance for programming : Marc-Olivier Méhu
Technical & hardware support : Manuel Goepfert

Contact : metmap@orbifly.com




SOURCES & CREDITS :

   NOAA